createdAt,value
2019-02-15T00:01:33.294Z,45.17
2019-02-15T00:04:06.719Z,43.43
2019-02-15T00:06:41.825Z,43.43
2019-02-15T00:09:15.319Z,42.90
2019-02-15T00:11:48.778Z,42.87
2019-02-15T00:14:25.004Z,42.87
2019-02-15T00:16:58.479Z,41.73
2019-02-15T00:19:36.478Z,42.50
2019-02-15T00:22:09.958Z,40.97
2019-02-15T00:24:43.471Z,43.73
2019-02-15T00:27:16.994Z,41.60
2019-02-15T00:29:50.508Z,40.87
2019-02-15T00:32:24.083Z,41.73
2019-02-15T00:34:57.552Z,41.90
2019-02-15T00:37:31.020Z,41.60
2019-02-15T00:40:05.734Z,40.50
2019-02-15T00:42:39.157Z,39.67
2019-02-15T00:45:14.282Z,41.40
2019-02-15T00:47:49.360Z,39.33
2019-02-15T00:50:24.488Z,37.03
2019-02-15T00:53:02.496Z,39.50
2019-02-15T00:55:40.168Z,35.43
2019-02-15T00:58:15.268Z,39.10
2019-02-15T01:00:50.437Z,37.50
2019-02-15T01:03:31.292Z,38.73
2019-02-15T01:06:06.412Z,37.67
2019-02-15T01:08:47.201Z,35.57
2019-02-15T01:11:22.272Z,37.50
2019-02-15T01:13:57.411Z,40.40
2019-02-15T01:16:30.962Z,38.27
2019-02-15T01:19:04.477Z,39.97
2019-02-15T01:21:37.895Z,39.53
2019-02-15T01:24:11.358Z,37.93
2019-02-15T01:26:49.423Z,38.13
2019-02-15T01:29:27.269Z,35.90
2019-02-15T01:32:08.078Z,35.40
2019-02-15T01:34:52.320Z,36.50
2019-02-15T01:37:43.774Z,38.50
2019-02-15T01:40:34.064Z,33.77
2019-02-15T01:43:27.344Z,33.77
2019-02-15T01:46:17.550Z,36.13
2019-02-15T01:48:51.006Z,37.33
2019-02-15T01:51:24.469Z,36.40
2019-02-15T01:53:59.560Z,36.43
2019-02-15T01:56:32.992Z,35.53
2019-02-15T01:59:06.526Z,36.63
2019-02-15T02:01:39.933Z,36.77
2019-02-15T02:04:13.458Z,34.40
2019-02-15T02:06:46.887Z,35.93
2019-02-15T02:09:20.543Z,33.90
2019-02-15T02:11:55.629Z,33.00
2019-02-15T02:14:29.084Z,34.30
2019-02-15T02:17:02.543Z,35.60
2019-02-15T02:19:36.044Z,34.67
2019-02-15T02:22:09.477Z,33.27
2019-02-15T02:24:42.970Z,32.60
2019-02-15T02:27:16.440Z,32.07
2019-02-15T02:29:49.896Z,33.83
2019-02-15T02:32:23.345Z,31.77
2019-02-15T02:34:56.792Z,36.10
2019-02-15T02:37:30.252Z,36.10
2019-02-15T02:40:07.640Z,32.50
2019-02-15T02:42:42.029Z,32.33
2019-02-15T02:45:15.495Z,33.37
2019-02-15T02:47:48.917Z,31.83
2019-02-15T02:50:22.471Z,33.67
2019-02-15T02:52:55.896Z,32.53
2019-02-15T02:55:29.382Z,32.90
2019-02-15T02:58:04.504Z,32.37
2019-02-15T03:00:37.940Z,33.47
2019-02-15T03:03:11.431Z,34.20
2019-02-15T03:05:44.900Z,32.60
2019-02-15T03:08:19.999Z,32.37
2019-02-15T03:10:53.453Z,30.77
2019-02-15T03:13:28.558Z,30.77
2019-02-15T03:16:02.096Z,33.53
2019-02-15T03:18:35.533Z,34.30
2019-02-15T03:21:09.004Z,31.67
2019-02-15T03:23:42.448Z,33.03
2019-02-15T03:26:15.928Z,33.47
2019-02-15T03:28:52.016Z,34.00
2019-02-15T03:31:25.450Z,33.10
2019-02-15T03:33:58.918Z,34.03
2019-02-15T03:36:49.135Z,34.33
2019-02-15T03:39:43.670Z,33.77
2019-02-15T03:42:17.174Z,34.67
2019-02-15T03:44:50.727Z,36.57
2019-02-15T03:47:24.989Z,33.03
2019-02-15T03:49:59.408Z,33.53
2019-02-15T03:52:32.862Z,32.53
2019-02-15T03:55:06.748Z,32.97
2019-02-15T03:57:40.164Z,32.80
2019-02-15T04:00:15.317Z,31.50
2019-02-15T04:02:48.757Z,30.57
2019-02-15T04:05:22.328Z,30.53
2019-02-15T04:07:57.782Z,31.50
2019-02-15T04:10:30.914Z,32.33
2019-02-15T04:13:04.414Z,33.60
2019-02-15T04:15:38.125Z,34.13
2019-02-15T04:18:11.565Z,34.67
2019-02-15T04:20:45.018Z,36.87
2019-02-15T04:23:18.528Z,36.73
2019-02-15T04:25:51.954Z,37.17
2019-02-15T04:28:27.969Z,36.73
2019-02-15T04:31:01.420Z,36.17
2019-02-15T04:33:34.945Z,37.00
2019-02-15T04:36:08.337Z,37.53
2019-02-15T04:38:41.836Z,39.70
2019-02-15T04:41:15.667Z,39.73
2019-02-15T04:43:49.129Z,36.77
2019-02-15T04:46:22.596Z,36.57
2019-02-15T04:48:56.104Z,33.20
2019-02-15T04:51:29.537Z,34.53
2019-02-15T04:54:02.987Z,37.07
2019-02-15T04:56:36.481Z,36.53
2019-02-15T04:59:09.932Z,35.40
2019-02-15T05:01:43.400Z,37.10
2019-02-15T05:04:16.872Z,33.97
2019-02-15T05:06:50.398Z,35.40
2019-02-15T05:09:26.915Z,33.83
2019-02-15T05:12:01.977Z,30.93
2019-02-15T05:14:35.407Z,32.50
2019-02-15T05:17:11.980Z,33.03
2019-02-15T05:19:45.424Z,35.10
2019-02-15T05:22:18.916Z,35.97
2019-02-15T05:24:52.340Z,37.63
2019-02-15T05:27:25.791Z,34.63
2019-02-15T05:29:59.221Z,36.27
2019-02-15T05:32:32.686Z,33.90
2019-02-15T05:35:06.416Z,33.03
2019-02-15T05:37:39.789Z,34.17
2019-02-15T05:40:13.272Z,33.37
2019-02-15T05:42:46.700Z,33.63
2019-02-15T05:45:20.252Z,32.13
2019-02-15T05:47:58.329Z,31.67
2019-02-15T05:50:31.917Z,33.10
2019-02-15T05:53:05.347Z,33.87
2019-02-15T05:55:38.822Z,34.57
2019-02-15T05:58:16.496Z,31.57
2019-02-15T06:00:49.898Z,30.97
2019-02-15T06:03:23.344Z,31.53
2019-02-15T06:05:56.809Z,31.70
2019-02-15T06:08:31.334Z,31.37
2019-02-15T06:11:07.852Z,33.57
2019-02-15T06:13:40.161Z,32.77
2019-02-15T06:16:13.534Z,33.27
2019-02-15T06:18:47.055Z,32.73
2019-02-15T06:21:20.491Z,31.97
2019-02-15T06:23:53.948Z,32.63
2019-02-15T06:26:27.368Z,30.90
2019-02-15T06:29:00.819Z,30.27
2019-02-15T06:31:34.433Z,30.93
2019-02-15T06:34:07.847Z,29.27
2019-02-15T06:36:41.302Z,31.13
2019-02-15T06:39:14.735Z,33.60
2019-02-15T06:41:48.293Z,31.40
2019-02-15T06:44:23.786Z,33.03
2019-02-15T06:46:57.197Z,33.50
2019-02-15T06:49:33.295Z,32.93
2019-02-15T06:52:06.762Z,34.30
2019-02-15T06:54:40.196Z,34.03
2019-02-15T06:57:13.669Z,37.20
2019-02-15T06:59:48.733Z,37.73
2019-02-15T07:02:30.959Z,40.97
2019-02-15T07:05:07.270Z,41.33
2019-02-15T07:07:40.716Z,38.43
2019-02-15T07:10:16.303Z,36.43
2019-02-15T07:12:49.723Z,35.57
2019-02-15T07:15:23.193Z,34.70
2019-02-15T07:17:57.019Z,35.30
2019-02-15T07:20:30.428Z,32.73
2019-02-15T07:23:03.928Z,34.93
2019-02-15T07:25:37.370Z,32.03
2019-02-15T07:28:10.817Z,32.50
2019-02-15T07:30:45.664Z,32.60
2019-02-15T07:33:22.049Z,35.13
2019-02-15T07:35:55.529Z,31.20
2019-02-15T07:38:28.956Z,29.50
2019-02-15T07:41:02.413Z,30.97
2019-02-15T07:43:35.838Z,29.87
2019-02-15T07:46:22.370Z,27.97
2019-02-15T07:48:56.074Z,28.70
2019-02-15T07:51:29.512Z,27.30
2019-02-15T07:54:02.948Z,28.60
2019-02-15T07:56:36.541Z,28.00
2019-02-15T07:59:12.903Z,26.77
2019-02-15T08:01:46.332Z,29.30
2019-02-15T08:04:19.756Z,26.13
2019-02-15T08:06:53.258Z,27.93
2019-02-15T08:09:26.685Z,28.87
2019-02-15T08:12:00.135Z,25.20
2019-02-15T08:14:33.604Z,22.33
2019-02-15T08:17:07.034Z,24.00
2019-02-15T08:19:40.521Z,20.17
2019-02-15T08:22:13.944Z,19.47
2019-02-15T08:24:47.441Z,18.87
2019-02-15T08:27:20.865Z,18.97
2019-02-15T08:29:54.362Z,19.83
2019-02-15T08:32:27.793Z,18.80
2019-02-15T08:35:01.232Z,18.60
2019-02-15T08:37:34.656Z,18.80
2019-02-15T08:40:18.897Z,19.33
2019-02-15T08:42:47.673Z,20.97
2019-02-15T08:45:21.140Z,19.47
2019-02-15T08:47:54.561Z,19.97
2019-02-15T08:50:28.008Z,20.80
2019-02-15T08:53:01.479Z,20.37
2019-02-15T08:55:34.903Z,21.00
2019-02-15T08:58:08.364Z,20.03
2019-02-15T09:00:41.799Z,17.93
2019-02-15T09:03:15.269Z,20.97
2019-02-15T09:05:48.699Z,19.60
2019-02-15T09:08:22.177Z,18.03
2019-02-15T09:10:55.640Z,17.43
2019-02-15T09:13:29.136Z,18.43
2019-02-15T09:16:09.968Z,20.07
2019-02-15T09:18:39.308Z,20.67
2019-02-15T09:21:15.584Z,18.50
2019-02-15T09:23:48.991Z,17.47
2019-02-15T09:26:22.445Z,17.87
2019-02-15T09:28:57.529Z,16.93
2019-02-15T09:31:30.972Z,17.23
2019-02-15T09:34:04.436Z,17.53
2019-02-15T09:36:37.860Z,20.03
2019-02-15T09:39:11.300Z,16.43
2019-02-15T09:41:44.739Z,18.37
2019-02-15T09:44:18.164Z,16.73
2019-02-15T09:46:51.607Z,17.87
2019-02-15T09:49:25.084Z,17.37
2019-02-15T09:51:58.521Z,16.53
2019-02-15T09:54:31.989Z,17.30
2019-02-15T09:57:05.416Z,15.77
2019-02-15T09:59:38.882Z,15.67
2019-02-15T10:02:13.701Z,16.13
2019-02-15T10:04:47.133Z,15.90
2019-02-15T10:07:20.586Z,15.67
2019-02-15T10:09:54.025Z,13.73
2019-02-15T10:12:27.549Z,16.83
2019-02-15T10:15:00.924Z,14.77
2019-02-15T10:17:34.400Z,13.63
2019-02-15T10:20:08.821Z,15.23
2019-02-15T10:22:44.605Z,14.50
2019-02-15T10:25:18.013Z,16.50
2019-02-15T10:27:51.479Z,14.37
2019-02-15T10:30:25.934Z,13.17
2019-02-15T10:32:59.383Z,11.97
2019-02-15T10:35:32.857Z,11.43
2019-02-15T10:38:06.358Z,12.83
2019-02-15T10:40:39.833Z,12.63
2019-02-15T10:43:14.763Z,12.90
2019-02-15T10:45:48.195Z,13.23
2019-02-15T10:48:21.681Z,12.90
2019-02-15T10:50:55.110Z,12.20
2019-02-15T10:53:28.571Z,11.23
2019-02-15T10:56:02.015Z,12.13
2019-02-15T10:58:36.497Z,12.47
2019-02-15T11:01:09.941Z,13.03
2019-02-15T11:03:43.424Z,13.40
2019-02-15T11:06:16.866Z,13.77
2019-02-15T11:08:50.319Z,14.23
2019-02-15T11:11:23.759Z,11.87
2019-02-15T11:13:57.220Z,13.50
2019-02-15T11:16:30.694Z,13.23
2019-02-15T11:19:05.509Z,12.87
2019-02-15T11:21:38.937Z,11.53
2019-02-15T14:27:44.707Z,10.03
2019-02-15T14:30:18.177Z,10.37
2019-02-15T14:32:51.743Z,11.57
2019-02-15T14:35:25.223Z,9.60
2019-02-15T14:37:58.678Z,9.60
2019-02-15T14:40:32.117Z,10.23
2019-02-15T14:43:10.567Z,9.03
2019-02-15T14:45:44.033Z,9.37
2019-02-15T14:48:17.539Z,11.30
2019-02-15T14:50:50.975Z,10.23
2019-02-15T14:53:24.436Z,11.53
2019-02-15T14:55:58.316Z,10.83
2019-02-15T14:58:31.752Z,10.83
2019-02-15T15:01:05.218Z,10.80
2019-02-15T15:03:38.643Z,10.07
2019-02-15T15:06:12.151Z,10.73
2019-02-15T15:08:45.595Z,10.53
2019-02-15T15:11:19.060Z,10.30
2019-02-15T15:13:52.515Z,10.13
2019-02-15T15:16:25.982Z,9.40
2019-02-15T15:18:59.409Z,10.40
2019-02-15T15:21:34.971Z,10.40
2019-02-15T15:24:07.958Z,10.10
2019-02-15T15:26:41.424Z,8.97
2019-02-15T15:29:14.864Z,9.23
2019-02-15T15:31:48.334Z,9.50
2019-02-15T15:34:21.781Z,10.23
2019-02-15T15:36:55.232Z,10.60
2019-02-15T15:39:28.716Z,10.50
2019-02-15T15:42:02.141Z,9.53
2019-02-15T15:44:35.589Z,9.03
2019-02-15T15:47:09.085Z,9.70
2019-02-15T15:49:42.570Z,8.70
2019-02-15T15:52:16.025Z,9.17
2019-02-15T15:54:49.503Z,7.80
2019-02-15T15:57:23.599Z,7.37
2019-02-15T15:59:57.401Z,8.00
2019-02-15T16:02:31.048Z,8.80
2019-02-15T16:05:05.466Z,9.10
2019-02-15T16:07:39.021Z,9.60
2019-02-15T16:10:14.680Z,8.80
2019-02-15T16:12:48.299Z,9.40
2019-02-15T16:15:21.810Z,9.27
2019-02-15T16:17:55.246Z,10.57
2019-02-15T16:20:28.791Z,10.40
2019-02-15T16:23:02.255Z,10.13
2019-02-15T16:25:41.289Z,11.63
2019-02-15T16:28:14.928Z,11.63
2019-02-15T16:30:48.611Z,13.13
2019-02-15T16:33:22.228Z,15.83
2019-02-15T16:35:55.808Z,14.80
2019-02-15T16:38:29.609Z,15.37
2019-02-15T16:41:03.041Z,17.33
2019-02-15T16:43:36.484Z,18.57
2019-02-15T16:46:09.949Z,16.43
2019-02-15T16:48:43.430Z,15.43
2019-02-15T16:51:16.864Z,15.27
2019-02-15T16:53:50.368Z,13.60
2019-02-15T16:56:23.806Z,15.00
2019-02-15T16:58:57.280Z,13.17
2019-02-15T17:01:30.714Z,12.80
2019-02-15T17:04:04.181Z,14.00
2019-02-15T17:06:37.623Z,14.50
2019-02-15T17:09:17.527Z,14.07
2019-02-15T17:11:51.005Z,14.47
2019-02-15T17:14:24.432Z,15.00
2019-02-15T17:16:57.909Z,16.43
2019-02-15T17:19:31.344Z,16.23
2019-02-15T17:22:04.887Z,17.27
2019-02-15T17:24:38.375Z,16.63
2019-02-15T17:27:11.812Z,18.37
2019-02-15T17:29:45.330Z,21.27
2019-02-15T17:32:18.769Z,22.63
2019-02-15T17:34:52.320Z,25.27
2019-02-15T17:37:25.743Z,24.67
2019-02-15T17:39:59.212Z,24.00
2019-02-15T17:42:32.732Z,25.97
2019-02-15T17:45:08.347Z,26.43
2019-02-15T17:47:41.798Z,27.53
2019-02-15T17:50:15.265Z,25.80
2019-02-15T17:52:48.726Z,25.03
2019-02-15T17:55:22.160Z,24.57
2019-02-15T17:57:55.640Z,30.73
2019-02-15T18:00:30.817Z,32.10
2019-02-15T18:03:05.173Z,31.17
2019-02-15T18:05:38.618Z,28.73
2019-02-15T18:08:12.118Z,25.97
2019-02-15T18:10:45.593Z,23.43
2019-02-15T18:13:19.954Z,30.50
2019-02-15T18:15:53.486Z,33.27
2019-02-15T18:18:27.008Z,40.90
2019-02-15T18:21:02.014Z,37.77
2019-02-15T18:23:37.098Z,43.83
2019-02-15T18:26:10.969Z,42.57
2019-02-15T18:28:44.417Z,39.53
2019-02-15T18:31:17.965Z,37.40
2019-02-15T18:33:51.600Z,34.70
2019-02-15T18:36:26.093Z,35.17
2019-02-15T18:38:59.463Z,36.13
2019-02-15T18:41:33.266Z,36.33
2019-02-15T18:44:06.734Z,42.57
2019-02-15T18:46:40.454Z,46.17
2019-02-15T18:49:25.113Z,52.13
2019-02-15T18:51:59.306Z,51.80
2019-02-15T18:54:32.700Z,50.37
2019-02-15T18:57:06.176Z,49.87
2019-02-15T18:59:39.645Z,46.13
2019-02-15T19:02:14.761Z,46.30
2019-02-15T19:04:48.397Z,45.37
2019-02-15T19:07:21.903Z,44.80
2019-02-15T19:09:55.396Z,42.57
2019-02-15T19:12:28.932Z,44.87
2019-02-15T19:15:08.893Z,41.53
2019-02-15T19:17:42.654Z,38.80
2019-02-15T19:20:17.075Z,43.17
2019-02-15T19:22:50.550Z,43.80
2019-02-15T19:25:24.013Z,43.83
2019-02-15T19:27:57.492Z,43.73
2019-02-15T19:30:33.638Z,44.17
2019-02-15T19:33:07.122Z,49.10
2019-02-15T19:35:40.794Z,50.73
2019-02-15T19:38:14.452Z,53.43
2019-02-15T19:40:48.054Z,52.77
2019-02-15T19:43:21.559Z,55.73
2019-02-15T19:45:54.999Z,53.60
2019-02-15T19:48:28.489Z,53.43
2019-02-15T19:51:01.981Z,56.20
2019-02-15T19:53:36.022Z,54.40
2019-02-15T19:56:09.474Z,56.03
2019-02-15T19:58:43.753Z,50.77
2019-02-15T20:01:17.549Z,51.70
2019-02-15T20:03:50.980Z,50.30
2019-02-15T20:06:24.456Z,54.03
2019-02-15T20:08:57.966Z,60.63
2019-02-15T20:11:31.529Z,61.60
2019-02-15T20:14:04.950Z,60.07
2019-02-15T20:16:38.455Z,52.27
2019-02-15T20:19:11.922Z,46.70
2019-02-15T20:21:45.406Z,46.70
2019-02-15T20:24:18.895Z,48.93
2019-02-15T20:26:53.683Z,47.53
2019-02-15T20:29:27.145Z,51.20
2019-02-15T20:32:00.605Z,51.47
2019-02-15T20:34:34.097Z,54.47
2019-02-15T20:37:08.707Z,58.07
2019-02-15T20:39:43.389Z,63.73
2019-02-15T20:42:16.836Z,65.00
2019-02-15T20:44:57.616Z,75.40
2019-02-15T20:47:32.167Z,68.17
2019-02-15T20:50:08.050Z,63.37
2019-02-15T20:52:41.551Z,55.60
2019-02-15T20:55:17.436Z,52.77
2019-02-15T20:57:50.897Z,53.87
2019-02-15T21:00:27.530Z,52.87
2019-02-15T21:03:00.999Z,56.07
2019-02-15T21:05:34.446Z,59.17
2019-02-15T21:08:08.134Z,58.77
2019-02-15T21:10:41.636Z,59.50
2019-02-15T21:13:20.452Z,60.17
2019-02-15T21:15:50.253Z,57.60
2019-02-15T21:18:23.729Z,61.70
2019-02-15T21:20:57.332Z,59.53
2019-02-15T21:23:30.805Z,57.00
2019-02-15T21:26:04.306Z,53.57
2019-02-15T21:28:37.770Z,54.53
2019-02-15T21:31:11.287Z,55.63
2019-02-15T21:33:44.938Z,50.23
2019-02-15T21:36:18.394Z,47.17
2019-02-15T21:38:51.900Z,46.63
2019-02-15T21:41:26.066Z,42.17
2019-02-15T21:43:59.510Z,44.30
2019-02-15T21:46:33.054Z,48.57
2019-02-15T21:49:06.559Z,46.97
2019-02-15T21:51:40.278Z,46.67
2019-02-15T21:54:13.925Z,47.73
2019-02-15T21:56:47.577Z,47.37
2019-02-15T21:59:21.056Z,46.70
2019-02-15T22:01:54.510Z,48.03
2019-02-15T22:04:27.973Z,47.10
2019-02-15T22:07:04.133Z,46.87
2019-02-15T22:09:37.577Z,45.10
2019-02-15T22:12:11.089Z,45.67
2019-02-15T22:14:44.632Z,49.97
2019-02-15T22:17:21.099Z,46.77
2019-02-15T22:19:54.558Z,46.50
2019-02-15T22:22:28.020Z,47.93
2019-02-15T22:25:01.495Z,50.33
2019-02-15T22:27:35.047Z,47.40
2019-02-15T22:30:19.568Z,48.30
2019-02-15T22:32:53.034Z,44.43
2019-02-15T22:35:26.701Z,45.03
2019-02-15T22:38:00.147Z,46.20
2019-02-15T22:40:36.368Z,52.70
2019-02-15T22:43:20.922Z,50.83
2019-02-15T22:45:54.433Z,59.67
2019-02-15T22:48:27.931Z,57.43
2019-02-15T22:51:04.300Z,54.00
2019-02-15T22:53:37.765Z,51.27
2019-02-15T22:56:11.259Z,51.57
2019-02-15T22:58:44.720Z,47.43
2019-02-15T23:01:24.351Z,47.90
2019-02-15T23:03:53.550Z,43.93
2019-02-15T23:06:27.019Z,43.57
2019-02-15T23:09:00.492Z,43.80
2019-02-15T23:11:34.511Z,42.70
2019-02-15T23:14:07.917Z,45.63
2019-02-15T23:16:41.444Z,42.33
2019-02-15T23:19:14.885Z,39.70
2019-02-15T23:21:48.350Z,41.77
2019-02-15T23:24:25.022Z,42.20
2019-02-15T23:26:58.404Z,41.37
2019-02-15T23:29:31.887Z,45.67
2019-02-15T23:32:05.318Z,40.77
2019-02-15T23:34:38.800Z,41.57
2019-02-15T23:37:12.241Z,43.20
2019-02-15T23:39:48.538Z,39.47
2019-02-15T23:42:30.912Z,41.33
2019-02-15T23:45:04.636Z,41.67
2019-02-15T23:47:38.067Z,43.27
2019-02-15T23:50:11.537Z,40.73
2019-02-15T23:52:47.402Z,40.63
2019-02-15T23:55:20.839Z,37.87
2019-02-15T23:57:54.329Z,39.37
